Time;durP1;ratioP1;P1;durP2;ratioP2;P2;SDS_P1;SDS_P2;PMS_P1;PMS_P2;Temp;Humidity;BMP_temperature;BMP_pressure;BME280_temperature;BME280_humidity;BME280_pressure;Samples;Min_cycle;Max_cycle;Signal;HPM_P1;HPM_P2
2021/01/11 00:00:07;;;;;;;14.95;8.05;;;23.10;48.10;;;;;;5096326;28;20032;-59
2021/01/11 00:02:34;;;;;;;15.80;7.82;;;23.10;48.20;;;;;;5095626;28;20105;-59
2021/01/11 00:05:00;;;;;;;15.02;7.63;;;23.10;48.30;;;;;;5095572;28;20016;-59
2021/01/11 00:07:27;;;;;;;15.60;6.95;;;23.00;48.30;;;;;;5095796;28;20165;-59
2021/01/11 00:09:53;;;;;;;15.77;6.80;;;23.00;48.40;;;;;;5095504;28;20039;-59
2021/01/11 00:12:20;;;;;;;12.73;6.88;;;23.00;48.40;;;;;;5095679;28;20496;-59
2021/01/11 00:14:46;;;;;;;12.98;7.05;;;23.00;48.40;;;;;;5095610;28;20024;-59
2021/01/11 00:17:13;;;;;;;16.67;6.53;;;23.00;48.40;;;;;;5095720;28;20047;-59
2021/01/11 00:19:39;;;;;;;14.85;6.50;;;23.00;48.40;;;;;;5095600;28;20052;-58
2021/01/11 00:22:06;;;;;;;13.73;6.88;;;23.10;48.40;;;;;;5095586;28;20039;-58
2021/01/11 00:24:33;;;;;;;13.85;5.88;;;23.10;48.40;;;;;;5094989;28;20445;-58
2021/01/11 00:27:00;;;;;;;12.38;5.90;;;23.10;48.40;;;;;;5095526;28;20027;-55
2021/01/11 00:29:27;;;;;;;12.02;6.57;;;23.10;48.30;;;;;;5094667;28;20048;-55
2021/01/11 00:31:57;;;;;;;16.60;6.15;;;23.10;48.40;;;;;;5095700;28;20024;-55
2021/01/11 00:34:24;;;;;;;11.95;6.07;;;23.10;48.40;;;;;;5095203;28;20032;-55
2021/01/11 00:36:57;;;;;;;16.48;5.60;;;23.10;48.40;;;;;;5096040;28;20084;-55
2021/01/11 00:39:28;;;;;;;14.10;6.18;;;23.10;48.40;;;;;;5095379;28;20059;-56
2021/01/11 00:41:59;;;;;;;15.73;7.07;;;23.20;48.50;;;;;;5094608;28;20028;-57
2021/01/11 00:44:26;;;;;;;15.70;6.20;;;23.20;48.40;;;;;;5095225;28;20028;-57
2021/01/11 00:46:57;;;;;;;15.85;5.93;;;23.20;48.30;;;;;;5095121;28;20248;-56
2021/01/11 00:49:24;;;;;;;10.10;5.37;;;23.20;48.30;;;;;;5094835;28;20078;-57
2021/01/11 00:51:50;;;;;;;12.20;5.25;;;23.30;48.30;;;;;;5095059;28;20244;-57
2021/01/11 00:54:17;;;;;;;10.15;5.65;;;23.30;48.20;;;;;;5095169;28;20039;-57
2021/01/11 00:56:43;;;;;;;10.45;5.18;;;23.30;48.10;;;;;;5094956;28;20473;-57
2021/01/11 00:59:10;;;;;;;13.98;5.55;;;23.40;48.10;;;;;;5094874;28;20020;-57
2021/01/11 01:01:36;;;;;;;11.27;5.10;;;23.40;48.20;;;;;;5094925;28;20028;-57
2021/01/11 01:04:05;;;;;;;15.63;5.60;;;23.40;48.10;;;;;;5094483;28;20024;-57
2021/01/11 01:06:31;;;;;;;21.25;5.80;;;23.50;48.40;;;;;;5094795;28;20033;-57
2021/01/11 01:08:58;;;;;;;15.75;5.10;;;23.60;48.80;;;;;;5094217;28;20040;-56
2021/01/11 01:11:27;;;;;;;19.63;5.65;;;23.60;48.90;;;;;;5094581;28;20039;-57
2021/01/11 01:13:53;;;;;;;14.93;5.18;;;23.70;48.90;;;;;;5094603;28;20346;-56
2021/01/11 01:16:26;;;;;;;15.27;4.97;;;23.80;48.90;;;;;;5094282;28;20078;-56
2021/01/11 01:18:54;;;;;;;13.00;5.05;;;23.90;48.80;;;;;;5094159;28;20087;-56
2021/01/11 01:21:21;;;;;;;12.25;5.15;;;24.00;48.70;;;;;;5094501;28;20024;-56
2021/01/11 01:23:47;;;;;;;12.90;5.55;;;24.10;48.50;;;;;;5090461;28;20508;-57
2021/01/11 01:26:14;;;;;;;12.30;4.95;;;24.20;48.50;;;;;;5084785;28;20056;-56
2021/01/11 01:28:41;;;;;;;10.45;4.63;;;24.30;48.40;;;;;;5074011;28;20096;-57
2021/01/11 01:31:07;;;;;;;15.15;4.53;;;24.50;48.30;;;;;;5073962;28;20060;-57
2021/01/11 01:33:34;;;;;;;13.70;4.80;;;24.60;48.10;;;;;;5074088;28;20020;-57
2021/01/11 01:36:00;;;;;;;12.43;4.60;;;24.70;47.90;;;;;;5090985;28;20028;-57
2021/01/11 01:38:28;;;;;;;11.88;4.30;;;24.80;47.80;;;;;;5093667;28;20059;-56
2021/01/11 01:40:55;;;;;;;15.43;4.60;;;24.90;47.50;;;;;;5094162;28;20027;-56
2021/01/11 01:43:22;;;;;;;11.93;4.30;;;25.10;47.40;;;;;;5093958;28;20059;-56
2021/01/11 01:45:48;;;;;;;9.32;4.28;;;25.10;47.20;;;;;;5094325;28;20030;-56
2021/01/11 01:48:15;;;;;;;11.75;4.15;;;25.30;47.10;;;;;;5075843;28;20035;-57
2021/01/11 01:50:42;;;;;;;11.98;4.07;;;25.40;46.90;;;;;;5094619;28;20020;-57
2021/01/11 01:53:09;;;;;;;9.10;4.15;;;25.50;46.70;;;;;;5094315;28;20084;-58
2021/01/11 01:55:38;;;;;;;15.43;3.92;;;25.50;46.50;;;;;;5093566;28;20034;-57
2021/01/11 01:58:09;;;;;;;10.82;3.65;;;25.60;46.30;;;;;;5094014;28;20028;-57
2021/01/11 02:00:35;;;;;;;6.43;3.35;;;25.80;46.30;;;;;;5094040;28;20020;-57
2021/01/11 02:03:02;;;;;;;8.93;3.47;;;25.80;46.10;;;;;;5093920;28;20039;-58
2021/01/11 02:05:28;;;;;;;8.10;3.20;;;25.90;46.00;;;;;;5093926;28;20020;-57
2021/01/11 02:08:04;;;;;;;8.85;3.40;;;25.90;45.80;;;;;;5093663;28;20036;-57
2021/01/11 02:10:33;;;;;;;10.27;3.15;;;26.00;45.70;;;;;;5093803;28;20435;-57
2021/01/11 02:13:28;;;;;;;8.00;3.42;;;26.10;45.70;;;;;;5075646;28;20031;-57
2021/01/11 02:16:12;;;;;;;7.85;3.40;;;26.10;45.50;;;;;;5094172;28;20438;-59
2021/01/11 02:18:54;;;;;;;8.05;3.38;;;26.20;45.40;;;;;;5093756;28;20043;-57
2021/01/11 02:22:01;;;;;;;12.45;3.45;;;26.20;45.20;;;;;;5094553;28;20031;-57
2021/01/11 02:25:01;;;;;;;10.93;3.17;;;26.20;45.20;;;;;;5066198;28;20139;-58
2021/01/11 02:27:31;;;;;;;13.00;2.88;;;26.30;45.20;;;;;;5093910;28;20020;-58
2021/01/11 02:30:03;;;;;;;10.88;2.97;;;26.20;45.10;;;;;;5095349;28;20491;-58
2021/01/11 02:32:30;;;;;;;11.85;3.63;;;26.20;45.00;;;;;;5097330;28;20424;-54
2021/01/11 02:35:00;;;;;;;9.27;3.08;;;26.20;45.20;;;;;;5097303;28;20397;-54
2021/01/11 02:37:27;;;;;;;13.73;3.88;;;26.10;45.50;;;;;;5097168;28;20119;-53
2021/01/11 02:39:54;;;;;;;17.42;3.90;;;26.10;45.60;;;;;;5097557;28;20063;-53
2021/01/11 02:42:21;;;;;;;15.18;3.80;;;26.10;45.80;;;;;;5097523;28;20034;-53
2021/01/11 02:44:48;;;;;;;17.88;3.13;;;26.10;46.10;;;;;;5097238;28;20366;-54
2021/01/11 02:47:23;;;;;;;14.52;3.30;;;26.00;46.30;;;;;;5097418;28;20024;-53
2021/01/11 02:49:55;;;;;;;13.15;3.08;;;26.00;46.60;;;;;;5097519;28;20118;-53
2021/01/11 02:52:42;;;;;;;12.38;3.17;;;25.90;46.70;;;;;;5097644;28;20032;-54
2021/01/11 02:55:18;;;;;;;9.57;3.10;;;25.90;47.00;;;;;;5096921;28;20388;-54
2021/01/11 02:57:56;;;;;;;11.70;3.10;;;25.90;47.10;;;;;;5097575;28;20089;-54
2021/01/11 03:00:23;;;;;;;7.03;2.70;;;25.90;47.30;;;;;;5097155;28;20388;-54
2021/01/11 03:02:52;;;;;;;5.65;2.78;;;25.90;47.50;;;;;;5096799;28;20028;-54
2021/01/11 03:05:20;;;;;;;9.18;2.70;;;25.90;47.60;;;;;;5097129;28;20024;-55
2021/01/11 03:07:57;;;;;;;8.25;2.40;;;25.90;47.80;;;;;;5096994;28;20454;-54
2021/01/11 03:10:24;;;;;;;7.85;2.60;;;25.90;47.80;;;;;;5097109;28;20107;-54
2021/01/11 03:12:50;;;;;;;7.75;2.58;;;25.90;47.90;;;;;;5096717;28;20385;-53
2021/01/11 03:15:17;;;;;;;4.78;2.40;;;25.90;48.00;;;;;;5096676;28;20461;-54
2021/01/11 03:17:44;;;;;;;7.93;2.58;;;26.00;48.10;;;;;;5096787;28;20052;-54
2021/01/11 03:20:12;;;;;;;7.80;2.30;;;26.10;48.30;;;;;;5096584;28;20028;-53
2021/01/11 03:22:39;;;;;;;5.30;2.40;;;26.00;48.20;;;;;;5096677;28;20065;-53
2021/01/11 03:25:07;;;;;;;7.10;2.50;;;26.10;48.30;;;;;;5096619;28;20143;-54
2021/01/11 03:27:33;;;;;;;5.30;2.25;;;26.10;48.30;;;;;;5096855;28;20388;-54
2021/01/11 03:30:00;;;;;;;7.18;2.40;;;26.20;48.30;;;;;;5096700;28;20028;-54
2021/01/11 03:32:27;;;;;;;8.57;2.35;;;26.20;48.30;;;;;;5096443;28;20376;-54
2021/01/11 03:34:53;;;;;;;4.78;1.98;;;26.30;48.30;;;;;;5078446;28;20361;-54
2021/01/11 03:37:20;;;;;;;5.60;2.15;;;26.30;48.30;;;;;;5096539;28;20027;-54
2021/01/11 03:39:47;;;;;;;8.38;2.22;;;26.30;48.20;;;;;;5096079;28;20483;-54
2021/01/11 03:42:13;;;;;;;6.95;1.85;;;26.30;48.20;;;;;;5096410;28;20055;-54
2021/01/11 03:44:40;;;;;;;6.32;1.83;;;26.40;48.20;;;;;;5096409;28;20028;-53
2021/01/11 03:47:06;;;;;;;6.60;2.10;;;26.40;48.10;;;;;;5096345;28;20028;-53
2021/01/11 03:49:33;;;;;;;6.88;2.00;;;26.50;48.10;;;;;;5096106;28;20028;-54
2021/01/11 03:52:01;;;;;;;4.97;1.70;;;26.50;48.10;;;;;;5095838;28;20055;-54
2021/01/11 03:54:29;;;;;;;5.00;1.90;;;26.50;48.00;;;;;;5095830;28;20053;-53
2021/01/11 03:56:55;;;;;;;5.05;1.88;;;26.50;48.00;;;;;;5096178;28;20061;-53
2021/01/11 03:59:22;;;;;;;3.88;1.73;;;26.50;48.50;;;;;;5096116;28;20051;-54
2021/01/11 04:01:49;;;;;;;2.88;1.42;;;26.60;47.90;;;;;;5096357;28;20127;-54
2021/01/11 04:04:15;;;;;;;6.18;1.77;;;26.60;48.60;;;;;;5096040;28;20028;-55
2021/01/11 04:06:42;;;;;;;5.15;1.92;;;26.60;48.00;;;;;;5095719;28;20032;-56
2021/01/11 04:09:09;;;;;;;9.98;2.67;;;26.50;48.00;;;;;;5095938;28;20028;-58
2021/01/11 04:11:35;;;;;;;9.65;2.05;;;26.50;47.90;;;;;;5095023;28;20396;-57
2021/01/11 04:14:02;;;;;;;10.93;2.40;;;26.50;48.00;;;;;;5095823;28;20024;-57
2021/01/11 04:16:29;;;;;;;13.65;2.20;;;26.50;48.10;;;;;;5095988;28;20461;-59
2021/01/11 04:18:55;;;;;;;16.05;2.40;;;26.40;48.20;;;;;;5094497;28;20055;-59
2021/01/11 04:21:22;;;;;;;10.07;2.22;;;26.40;48.30;;;;;;5095818;28;20028;-58
2021/01/11 04:23:48;;;;;;;9.70;2.03;;;26.30;48.30;;;;;;5095279;28;20370;-58
2021/01/11 04:26:15;;;;;;;10.23;2.20;;;26.30;48.50;;;;;;5095640;28;20028;-59
2021/01/11 04:28:41;;;;;;;13.07;2.20;;;26.20;48.40;;;;;;5095152;28;20032;-58
2021/01/11 04:31:08;;;;;;;15.40;2.55;;;26.20;48.40;;;;;;5094538;28;20425;-57
2021/01/11 04:33:35;;;;;;;7.20;2.22;;;26.10;48.50;;;;;;5095150;28;20419;-57
2021/01/11 04:36:02;;;;;;;10.50;2.22;;;26.00;48.50;;;;;;5095345;28;20070;-57
2021/01/11 04:38:28;;;;;;;13.43;2.45;;;25.90;48.60;;;;;;5095338;28;20034;-57
2021/01/11 04:41:00;;;;;;;7.63;2.58;;;25.90;48.70;;;;;;5095266;28;20042;-60
2021/01/11 04:43:28;;;;;;;13.20;2.50;;;25.80;49.00;;;;;;5095995;28;20028;-58
2021/01/11 04:45:58;;;;;;;17.98;2.45;;;25.70;48.80;;;;;;5094951;28;20058;-59
2021/01/11 04:48:24;;;;;;;8.07;1.90;;;25.60;48.90;;;;;;5095635;28;20055;-60
2021/01/11 04:50:51;;;;;;;10.85;1.90;;;25.60;49.00;;;;;;5094512;28;20039;-61
2021/01/11 04:53:20;;;;;;;11.35;2.10;;;25.50;49.10;;;;;;5094038;28;20020;-59
2021/01/11 04:55:47;;;;;;;15.25;1.85;;;25.50;49.20;;;;;;5094950;28;20032;-61
2021/01/11 04:58:13;;;;;;;11.18;2.00;;;25.30;49.20;;;;;;5094598;28;20055;-60
2021/01/11 05:00:43;;;;;;;7.50;1.92;;;25.30;49.30;;;;;;5095248;28;20070;-60
2021/01/11 05:03:11;;;;;;;7.35;2.13;;;25.20;49.30;;;;;;5094555;28;20097;-61
2021/01/11 05:05:40;;;;;;;7.50;1.80;;;25.10;49.40;;;;;;5094849;28;20084;-61
2021/01/11 05:08:07;;;;;;;5.40;1.45;;;25.10;49.50;;;;;;5094340;28;20068;-61
2021/01/11 05:10:39;;;;;;;5.45;1.95;;;25.00;49.60;;;;;;5094341;28;20161;-61
2021/01/11 05:13:08;;;;;;;6.43;1.73;;;24.90;49.70;;;;;;5094931;28;20024;-61
2021/01/11 05:15:36;;;;;;;7.93;1.67;;;24.80;49.70;;;;;;5093452;28;20028;-60
2021/01/11 05:18:15;;;;;;;3.17;1.50;;;24.70;49.80;;;;;;5094235;28;20123;-60
2021/01/11 05:20:42;;;;;;;8.65;1.73;;;24.70;49.90;;;;;;5076772;28;20024;-60
2021/01/11 05:23:18;;;;;;;6.22;1.38;;;24.60;50.00;;;;;;5094549;28;20024;-60
2021/01/11 05:25:45;;;;;;;10.73;2.00;;;24.60;50.10;;;;;;5094561;28;20047;-56
2021/01/11 05:28:14;;;;;;;9.40;2.13;;;24.50;50.40;;;;;;5093831;28;20032;-57
2021/01/11 05:30:45;;;;;;;7.30;1.60;;;24.40;50.50;;;;;;5094673;28;20027;-57
2021/01/11 05:33:23;;;;;;;10.27;2.13;;;24.30;50.40;;;;;;5094276;28;20116;-58
2021/01/11 05:36:07;;;;;;;4.43;1.88;;;24.20;50.50;;;;;;5094270;28;20028;-58
2021/01/11 05:38:36;;;;;;;9.02;1.55;;;24.20;50.60;;;;;;5093874;28;20101;-58
2021/01/11 05:41:19;;;;;;;10.32;1.90;;;24.10;50.70;;;;;;5094283;28;20130;-58
2021/01/11 05:44:09;;;;;;;7.28;1.70;;;24.00;50.70;;;;;;5094269;28;20077;-58
2021/01/11 05:46:36;;;;;;;6.80;1.70;;;23.90;50.80;;;;;;5094257;28;20036;-58
2021/01/11 05:49:05;;;;;;;8.73;2.15;;;23.80;50.90;;;;;;5093329;28;20032;-57
2021/01/11 05:51:33;;;;;;;6.07;1.67;;;23.80;51.00;;;;;;5093499;28;20362;-58
2021/01/11 05:54:00;;;;;;;9.18;1.98;;;23.70;51.10;;;;;;5093519;28;20539;-57
2021/01/11 05:56:27;;;;;;;6.28;1.60;;;23.60;51.20;;;;;;5093437;28;20035;-60
2021/01/11 05:59:06;;;;;;;6.93;1.60;;;23.60;51.30;;;;;;5094016;28;20477;-59
2021/01/11 06:01:34;;;;;;;8.32;1.55;;;23.50;51.40;;;;;;5094490;28;20016;-58
2021/01/11 06:04:01;;;;;;;5.90;1.58;;;23.40;51.40;;;;;;5093636;28;20366;-57
2021/01/11 06:06:28;;;;;;;6.10;1.58;;;23.40;51.60;;;;;;5093958;28;20050;-58
2021/01/11 06:08:54;;;;;;;3.38;1.25;;;23.30;51.70;;;;;;5093478;28;20112;-58
2021/01/11 06:11:25;;;;;;;10.75;1.50;;;23.30;51.70;;;;;;5094024;28;20059;-57
2021/01/11 06:13:53;;;;;;;4.03;1.35;;;23.20;51.80;;;;;;5093587;28;20381;-57
2021/01/11 06:16:20;;;;;;;8.15;1.65;;;23.20;51.90;;;;;;5093236;28;20056;-58
2021/01/11 06:18:49;;;;;;;5.72;1.60;;;23.10;51.90;;;;;;5093557;28;20056;-57
2021/01/11 06:21:20;;;;;;;5.75;1.50;;;23.00;52.00;;;;;;5092999;28;20040;-57
2021/01/11 06:23:47;;;;;;;6.47;1.85;;;22.90;52.10;;;;;;5092995;28;20027;-58
2021/01/11 06:26:25;;;;;;;16.83;2.55;;;22.90;52.60;;;;;;5092635;28;20028;-56
2021/01/11 17:07:56;;;;;;;6.97;1.45;;;13.80;66.90;;;;;;5114988;27;20416;-55
2021/01/11 17:10:22;;;;;;;5.65;1.10;;;13.50;66.40;;;;;;5099099;28;20025;-55
2021/01/11 17:12:49;;;;;;;5.07;1.40;;;13.50;67.00;;;;;;5102856;28;20110;-55
2021/01/11 17:15:15;;;;;;;4.75;1.40;;;13.50;67.30;;;;;;5111942;28;20468;-56
2021/01/11 17:17:42;;;;;;;7.07;1.50;;;13.60;67.50;;;;;;5111345;28;20530;-55
2021/01/11 17:20:18;;;;;;;5.25;1.40;;;13.60;67.70;;;;;;5109689;28;20024;-55
2021/01/11 17:22:45;;;;;;;7.80;1.42;;;13.70;68.00;;;;;;5110358;28;20016;-56
2021/01/11 17:25:11;;;;;;;12.48;1.50;;;13.70;67.90;;;;;;5111054;28;20363;-56
2021/01/11 17:27:40;;;;;;;10.77;1.73;;;13.80;67.80;;;;;;5108412;28;20067;-55
2021/01/11 17:30:08;;;;;;;9.30;1.55;;;13.90;67.70;;;;;;5111551;28;20039;-56
2021/01/11 17:32:38;;;;;;;5.53;1.73;;;13.90;67.50;;;;;;5111125;28;20079;-55
2021/01/11 17:35:06;;;;;;;10.55;1.35;;;14.00;67.20;;;;;;5111012;28;20070;-57
2021/01/11 17:37:33;;;;;;;7.38;1.67;;;14.00;67.00;;;;;;5111039;28;20016;-56
2021/01/11 17:40:00;;;;;;;9.52;1.73;;;14.10;66.80;;;;;;5108309;28;20348;-55
2021/01/11 17:42:26;;;;;;;9.27;1.80;;;14.10;66.70;;;;;;5109777;28;20168;-56
2021/01/11 17:44:53;;;;;;;9.80;2.05;;;14.20;66.60;;;;;;5110577;28;20042;-55
2021/01/11 17:47:21;;;;;;;8.93;1.92;;;14.20;66.40;;;;;;5111145;28;20032;-55
2021/01/11 17:49:48;;;;;;;11.57;1.65;;;14.30;66.20;;;;;;5111000;28;20102;-56
2021/01/11 17:52:15;;;;;;;8.48;1.83;;;14.30;66.10;;;;;;5111004;28;20047;-56
2021/01/11 17:54:42;;;;;;;10.50;1.70;;;14.40;66.60;;;;;;5111231;28;20020;-56
2021/01/11 17:57:09;;;;;;;7.88;1.90;;;14.40;65.90;;;;;;5110794;28;20032;-56
2021/01/11 17:59:39;;;;;;;9.82;1.67;;;14.40;65.70;;;;;;5110590;28;20455;-56
2021/01/11 18:02:06;;;;;;;8.75;1.80;;;14.50;65.50;;;;;;5110489;28;20430;-56
2021/01/11 18:04:36;;;;;;;7.60;1.60;;;14.50;65.40;;;;;;5109992;28;20035;-55
2021/01/11 18:07:07;;;;;;;9.85;1.48;;;14.50;65.20;;;;;;5099115;28;20045;-56
2021/01/11 18:09:35;;;;;;;6.28;1.25;;;14.60;65.10;;;;;;5090910;28;20064;-56
2021/01/11 18:12:05;;;;;;;7.05;1.38;;;14.60;65.00;;;;;;5090394;28;20028;-56
2021/01/11 18:14:33;;;;;;;8.02;1.73;;;14.60;64.80;;;;;;5090231;28;20016;-56
2021/01/11 18:17:00;;;;;;;8.20;1.55;;;14.60;64.70;;;;;;5089987;28;20064;-56
2021/01/11 18:19:27;;;;;;;6.82;1.50;;;14.60;64.60;;;;;;5076015;28;20024;-56
2021/01/11 18:21:53;;;;;;;8.13;1.60;;;14.70;64.50;;;;;;5076445;28;20142;-56
2021/01/11 18:24:20;;;;;;;6.05;1.63;;;14.70;64.40;;;;;;5076493;28;20028;-56
2021/01/11 18:26:46;;;;;;;6.82;1.65;;;14.70;64.30;;;;;;5076109;28;20422;-56
2021/01/11 18:29:13;;;;;;;6.00;1.50;;;14.70;64.20;;;;;;5076627;28;20158;-56
2021/01/11 18:31:40;;;;;;;13.07;1.67;;;14.80;64.20;;;;;;5076382;28;20093;-56
2021/01/11 18:34:06;;;;;;;6.93;1.48;;;14.80;64.10;;;;;;5076325;28;20029;-56
2021/01/11 18:36:33;;;;;;;3.42;1.20;;;14.80;64.00;;;;;;5076348;28;20052;-56
2021/01/11 18:39:01;;;;;;;5.97;1.33;;;14.80;63.90;;;;;;5076125;28;20029;-56
2021/01/11 18:41:27;;;;;;;6.72;1.67;;;14.80;63.90;;;;;;5076225;28;20024;-56
2021/01/11 18:43:54;;;;;;;5.95;1.40;;;14.80;63.80;;;;;;5076191;28;20031;-56
2021/01/11 18:46:20;;;;;;;4.03;1.42;;;14.80;63.80;;;;;;5075945;28;20025;-56
2021/01/11 18:48:48;;;;;;;5.15;1.40;;;14.80;63.70;;;;;;5075751;28;20527;-56
2021/01/11 18:51:19;;;;;;;5.75;1.48;;;14.80;63.70;;;;;;5075941;28;20031;-56
2021/01/11 18:53:46;;;;;;;5.70;1.30;;;14.80;63.60;;;;;;5075948;28;20028;-56
2021/01/11 18:56:13;;;;;;;6.18;1.30;;;14.80;63.60;;;;;;5075950;28;20036;-56
2021/01/11 18:58:39;;;;;;;4.40;1.35;;;14.80;63.40;;;;;;5075878;28;20017;-56
2021/01/11 19:01:07;;;;;;;2.33;1.25;;;14.80;63.30;;;;;;5075503;28;20029;-56
2021/01/11 19:03:33;;;;;;;6.78;1.63;;;14.90;63.40;;;;;;5076342;28;20395;-56
2021/01/11 19:06:00;;;;;;;3.17;1.20;;;14.90;63.30;;;;;;5075505;28;20101;-55
2021/01/11 19:08:26;;;;;;;3.50;1.00;;;14.90;63.30;;;;;;5075741;28;20031;-56
2021/01/11 19:10:53;;;;;;;3.80;1.20;;;14.90;63.20;;;;;;5075572;28;20043;-56
2021/01/11 19:13:19;;;;;;;9.30;1.27;;;14.90;63.20;;;;;;5075614;28;20029;-56
2021/01/11 19:15:51;;;;;;;4.68;1.42;;;14.90;63.20;;;;;;5076113;28;20028;-56
2021/01/11 19:18:20;;;;;;;4.55;1.38;;;14.90;63.20;;;;;;5075777;28;20029;-56
2021/01/11 19:20:47;;;;;;;7.65;1.40;;;14.90;63.00;;;;;;5075597;28;20483;-55
2021/01/11 19:23:13;;;;;;;4.22;1.60;;;14.90;63.00;;;;;;5075287;28;20032;-56
2021/01/11 19:25:40;;;;;;;6.68;1.70;;;14.90;62.90;;;;;;5075451;28;20107;-56
2021/01/11 19:28:07;;;;;;;6.15;1.10;;;14.90;62.80;;;;;;5074943;28;20033;-55
2021/01/11 19:30:34;;;;;;;3.03;1.10;;;14.90;62.80;;;;;;5073996;28;20025;-56
2021/01/11 19:33:00;;;;;;;3.60;1.00;;;14.90;62.70;;;;;;5075223;28;20024;-55
2021/01/11 19:35:27;;;;;;;3.95;1.00;;;14.90;62.70;;;;;;5075153;28;20066;-56
2021/01/11 19:37:56;;;;;;;3.92;1.30;;;14.90;62.70;;;;;;5074980;28;20070;-56
2021/01/11 19:40:23;;;;;;;2.90;1.13;;;15.00;62.60;;;;;;5057058;28;20418;-55
2021/01/11 19:42:50;;;;;;;4.18;1.30;;;15.00;62.60;;;;;;5074815;28;20086;-56
2021/01/11 19:45:17;;;;;;;3.67;1.30;;;14.90;62.50;;;;;;5074902;28;20111;-56
2021/01/11 19:47:43;;;;;;;3.45;1.33;;;15.00;62.50;;;;;;5074715;28;20041;-55
2021/01/11 19:50:10;;;;;;;3.92;1.48;;;15.00;62.50;;;;;;5074724;28;20070;-56
2021/01/11 19:52:39;;;;;;;5.60;1.30;;;15.00;62.50;;;;;;5074787;28;20028;-55
2021/01/11 19:55:06;;;;;;;3.80;1.10;;;15.00;62.40;;;;;;5074766;28;20040;-56
2021/01/11 19:57:32;;;;;;;7.63;1.30;;;15.00;62.40;;;;;;5074314;28;20033;-56
2021/01/11 19:59:59;;;;;;;2.65;1.10;;;15.00;62.40;;;;;;5074679;28;20480;-56
2021/01/11 20:02:26;;;;;;;3.20;1.02;;;15.00;62.30;;;;;;5074372;28;20031;-56
2021/01/11 20:04:52;;;;;;;2.28;0.95;;;15.00;62.30;;;;;;5074497;28;20051;-55
2021/01/11 20:07:19;;;;;;;3.50;1.33;;;15.00;62.30;;;;;;5074673;28;20055;-55
2021/01/11 20:09:45;;;;;;;1.95;1.05;;;15.00;62.20;;;;;;5074485;28;20104;-55
2021/01/11 20:12:16;;;;;;;2.40;1.10;;;15.00;62.10;;;;;;5074609;28;20029;-55
2021/01/11 20:14:43;;;;;;;3.33;1.17;;;15.00;62.10;;;;;;5074071;28;20476;-55
2021/01/11 20:17:14;;;;;;;4.88;1.20;;;15.00;62.10;;;;;;5074341;28;20028;-55
2021/01/11 20:19:41;;;;;;;3.07;1.23;;;15.00;62.00;;;;;;5074443;28;20020;-55
2021/01/11 20:22:08;;;;;;;2.70;1.10;;;15.00;62.00;;;;;;5074463;28;20107;-56
2021/01/11 20:24:34;;;;;;;2.40;0.95;;;15.00;62.00;;;;;;5074253;28;20024;-55
2021/01/11 20:27:03;;;;;;;1.85;1.00;;;15.00;62.00;;;;;;5074041;28;20149;-56
2021/01/11 20:29:30;;;;;;;2.03;1.02;;;15.00;62.00;;;;;;5073738;28;20040;-56
2021/01/11 20:31:57;;;;;;;2.92;1.20;;;15.00;61.90;;;;;;5074138;28;20074;-56
2021/01/11 20:34:23;;;;;;;1.70;0.90;;;15.00;61.90;;;;;;5074101;28;20030;-56
2021/01/11 20:36:50;;;;;;;4.20;1.05;;;15.00;61.80;;;;;;5074239;28;20050;-55
2021/01/11 20:39:18;;;;;;;4.72;1.27;;;15.00;61.80;;;;;;5073623;28;20107;-55
2021/01/11 20:41:45;;;;;;;3.53;1.13;;;15.00;61.80;;;;;;5073904;28;20028;-56
2021/01/11 20:44:14;;;;;;;3.17;1.00;;;15.00;61.80;;;;;;5073863;28;20032;-55
2021/01/11 20:46:49;;;;;;;2.78;1.20;;;15.00;61.80;;;;;;5073758;28;20035;-55
2021/01/11 20:49:15;;;;;;;2.15;1.00;;;15.10;61.80;;;;;;5074370;28;20032;-56
2021/01/11 20:51:42;;;;;;;1.33;0.80;;;15.10;61.80;;;;;;5073904;28;20021;-55
2021/01/11 20:54:09;;;;;;;2.45;0.90;;;15.00;61.70;;;;;;5073657;28;20357;-55
2021/01/11 20:56:46;;;;;;;3.17;1.15;;;15.10;61.70;;;;;;5073803;28;20044;-56
2021/01/11 20:59:12;;;;;;;1.55;0.95;;;15.10;61.70;;;;;;5073917;28;20025;-55
2021/01/11 21:01:41;;;;;;;3.38;0.98;;;15.10;61.70;;;;;;5073706;28;20028;-55
2021/01/11 21:04:07;;;;;;;2.55;1.00;;;15.10;61.70;;;;;;5074165;28;20036;-56
2021/01/11 21:06:35;;;;;;;4.50;0.90;;;15.10;61.70;;;;;;5073716;28;20052;-55
2021/01/11 21:09:03;;;;;;;4.22;1.27;;;15.10;61.60;;;;;;5073663;28;20070;-56
2021/01/11 21:11:31;;;;;;;1.67;0.90;;;15.10;61.70;;;;;;5073324;28;20464;-55
2021/01/11 21:13:58;;;;;;;3.50;1.20;;;15.10;61.70;;;;;;5073607;28;20033;-55
2021/01/11 21:16:26;;;;;;;2.05;0.82;;;15.10;61.60;;;;;;5074222;28;20035;-56
2021/01/11 21:18:53;;;;;;;2.75;0.90;;;15.10;61.60;;;;;;5073674;28;20028;-56
2021/01/11 21:21:24;;;;;;;3.97;1.20;;;15.10;61.60;;;;;;5073667;28;20031;-55
2021/01/11 21:23:53;;;;;;;2.10;0.90;;;15.10;61.50;;;;;;5073519;28;20032;-56
2021/01/11 21:26:33;;;;;;;2.85;1.10;;;15.10;61.50;;;;;;5073398;28;20120;-55
2021/01/11 21:29:01;;;;;;;1.50;1.00;;;15.10;61.60;;;;;;5073618;28;20094;-56
2021/01/11 21:31:28;;;;;;;1.67;0.98;;;15.10;61.50;;;;;;5073505;28;20016;-55
2021/01/11 21:33:56;;;;;;;2.13;1.20;;;15.10;61.50;;;;;;5073503;28;20025;-56
2021/01/11 21:36:31;;;;;;;2.00;0.90;;;15.10;61.50;;;;;;5073097;28;20032;-55
2021/01/11 21:38:59;;;;;;;2.80;0.90;;;15.10;61.40;;;;;;5074206;28;20024;-56
2021/01/11 21:41:26;;;;;;;3.47;0.98;;;15.10;61.40;;;;;;5073408;28;20025;-55
2021/01/11 21:43:53;;;;;;;1.95;1.08;;;15.10;61.40;;;;;;5073397;28;20021;-55
2021/01/11 21:46:20;;;;;;;3.05;1.15;;;15.10;61.40;;;;;;5072949;28;20032;-55
2021/01/11 21:48:48;;;;;;;1.92;1.00;;;15.10;61.40;;;;;;5073346;28;20036;-55
2021/01/11 21:51:16;;;;;;;1.85;1.05;;;15.10;61.40;;;;;;5073257;28;20040;-55
2021/01/11 21:53:43;;;;;;;2.10;1.10;;;15.20;61.50;;;;;;5075424;28;20021;-56
2021/01/11 21:56:09;;;;;;;2.92;1.10;;;15.10;61.40;;;;;;5077047;28;20371;-56
2021/01/11 21:58:38;;;;;;;2.17;0.95;;;15.10;61.40;;;;;;5077546;28;20432;-55
2021/01/11 22:01:06;;;;;;;1.83;0.90;;;15.10;61.40;;;;;;5076970;28;20403;-55
2021/01/11 22:03:33;;;;;;;1.92;1.00;;;15.10;61.40;;;;;;5076904;28;20016;-55
2021/01/11 22:06:00;;;;;;;1.88;1.10;;;15.10;61.40;;;;;;5076629;28;20139;-55
2021/01/11 22:08:26;;;;;;;3.33;1.10;;;15.10;61.40;;;;;;5077171;28;20481;-55
2021/01/11 22:10:53;;;;;;;2.47;1.20;;;15.10;61.40;;;;;;5076817;28;20020;-55
2021/01/11 22:13:19;;;;;;;3.00;1.10;;;15.10;61.40;;;;;;5076463;28;20050;-56
2021/01/11 22:15:46;;;;;;;2.13;1.00;;;15.10;61.40;;;;;;5077218;28;20376;-56
2021/01/11 22:18:13;;;;;;;3.40;1.13;;;15.10;61.50;;;;;;5076278;28;20541;-55
2021/01/11 22:20:39;;;;;;;2.17;1.08;;;15.10;61.40;;;;;;5076608;28;20020;-55
2021/01/11 22:23:06;;;;;;;2.53;1.05;;;15.10;61.40;;;;;;5076569;28;20475;-55
2021/01/11 22:25:32;;;;;;;3.88;1.20;;;15.20;61.50;;;;;;5076811;28;20028;-55
2021/01/11 22:27:59;;;;;;;3.10;1.20;;;15.20;61.50;;;;;;5076300;28;20036;-56
2021/01/11 22:30:25;;;;;;;2.35;1.27;;;15.10;61.40;;;;;;5076416;28;20028;-55
2021/01/11 22:32:52;;;;;;;2.35;1.13;;;15.10;61.30;;;;;;5076084;28;20468;-55
2021/01/11 22:35:18;;;;;;;3.17;1.35;;;15.10;61.40;;;;;;5076900;28;20028;-55
2021/01/11 22:37:45;;;;;;;3.72;1.30;;;15.10;61.30;;;;;;5076281;28;20025;-56
2021/01/11 22:40:12;;;;;;;1.75;1.00;;;15.10;61.30;;;;;;5076537;28;20028;-55
2021/01/11 22:42:38;;;;;;;2.85;1.20;;;15.10;61.40;;;;;;5076235;28;20478;-55
2021/01/11 22:45:06;;;;;;;1.90;1.10;;;15.10;61.20;;;;;;5076210;28;20103;-55
2021/01/11 22:47:32;;;;;;;1.92;1.13;;;15.10;61.20;;;;;;5076068;28;20024;-55
2021/01/11 22:49:59;;;;;;;2.53;1.15;;;15.10;61.20;;;;;;5076144;28;20028;-55
2021/01/11 22:52:31;;;;;;;4.05;1.33;;;15.10;61.20;;;;;;5075923;28;20021;-55
2021/01/11 22:54:57;;;;;;;1.92;1.20;;;15.10;61.20;;;;;;5075683;28;20024;-55
2021/01/11 22:57:24;;;;;;;2.85;1.20;;;15.10;61.20;;;;;;5075872;28;20482;-55
2021/01/11 22:59:51;;;;;;;2.95;1.30;;;15.10;61.10;;;;;;5076124;28;20075;-55
2021/01/11 23:02:21;;;;;;;3.05;1.42;;;15.10;61.10;;;;;;5075882;28;20032;-55
2021/01/11 23:04:48;;;;;;;2.15;1.27;;;15.10;61.10;;;;;;5075857;28;20058;-55
2021/01/11 23:07:14;;;;;;;3.63;1.20;;;15.10;61.00;;;;;;5075677;28;20130;-55
2021/01/11 23:09:44;;;;;;;2.00;1.05;;;15.00;61.00;;;;;;5075916;28;20024;-55
2021/01/11 23:12:11;;;;;;;3.42;1.40;;;15.10;61.00;;;;;;5075592;28;20029;-55
2021/01/11 23:14:38;;;;;;;3.13;1.25;;;15.10;61.00;;;;;;5075659;28;20020;-55
2021/01/11 23:17:05;;;;;;;3.67;1.23;;;15.00;60.90;;;;;;5075582;28;20021;-55
2021/01/11 23:19:32;;;;;;;2.50;1.40;;;15.10;61.00;;;;;;5075542;28;20475;-55
2021/01/11 23:22:01;;;;;;;4.00;1.38;;;15.00;60.90;;;;;;5075735;28;20025;-55
2021/01/11 23:24:27;;;;;;;3.60;1.30;;;15.00;60.90;;;;;;5075640;28;20039;-55
2021/01/11 23:26:54;;;;;;;2.97;1.10;;;15.00;60.90;;;;;;5075043;28;20068;-55